Time;durP1;ratioP1;P1;durP2;ratioP2;P2;SDS_P1;SDS_P2;PMS_P1;PMS_P2;Temp;Humidity;BMP_temperature;BMP_pressure;BME280_temperature;BME280_humidity;BME280_pressure;Samples;Min_cycle;Max_cycle;Signal;HPM_P1;HPM_P2
2022/11/08 00:16:14;;;;;;;9.73;3.50;;;12.00;1.00;;;;;;4956617;28;20432;-87
2022/11/08 00:18:47;;;;;;;9.47;4.20;;;12.00;1.00;;;;;;4965854;28;20523;-92
2022/11/08 00:21:29;;;;;;;11.67;3.57;;;11.90;1.00;;;;;;4957818;28;20477;-89
2022/11/08 00:23:58;;;;;;;9.07;3.13;;;11.90;1.00;;;;;;4959630;28;20481;-86
2022/11/08 00:26:30;;;;;;;11.50;4.03;;;11.80;1.00;;;;;;4967508;28;20428;-91
2022/11/08 00:28:58;;;;;;;11.03;3.63;;;11.80;1.00;;;;;;4950156;28;20453;-83
2022/11/08 00:31:25;;;;;;;7.40;3.10;;;11.80;1.00;;;;;;4962914;28;20435;-85
2022/11/08 00:33:54;;;;;;;10.23;3.77;;;11.70;1.00;;;;;;4959961;28;20477;-84
2022/11/08 00:36:26;;;;;;;8.90;3.43;;;11.70;1.00;;;;;;4969189;28;20423;-90
2022/11/08 00:38:58;;;;;;;10.90;3.33;;;11.60;1.00;;;;;;4955373;28;20424;-93
2022/11/08 00:41:28;;;;;;;9.77;3.67;;;11.60;1.00;;;;;;4968519;28;20418;-86
2022/11/08 00:44:05;;;;;;;7.57;3.10;;;11.50;1.00;;;;;;4956420;28;20469;-93
2022/11/08 00:46:40;;;;;;;8.00;3.20;;;11.50;1.00;;;;;;4968990;28;20428;-92
2022/11/08 00:49:07;;;;;;;10.10;3.10;;;11.50;1.00;;;;;;4944092;28;20601;-83
2022/11/08 00:51:35;;;;;;;10.00;3.43;;;11.50;1.00;;;;;;4965943;28;20531;-92
2022/11/08 00:54:07;;;;;;;11.47;3.73;;;11.40;1.00;;;;;;4960897;28;20438;-84
2022/11/08 00:56:38;;;;;;;7.87;2.90;;;11.40;1.00;;;;;;4953022;28;21196;-81
2022/11/08 00:59:06;;;;;;;10.47;3.50;;;11.40;1.00;;;;;;4965356;28;20438;-84
2022/11/08 01:01:35;;;;;;;8.40;2.50;;;11.40;1.00;;;;;;4970552;28;20589;-83
2022/11/08 01:04:09;;;;;;;9.90;3.80;;;11.40;1.00;;;;;;4922813;28;20468;-83
2022/11/08 01:06:36;;;;;;;14.87;7.30;;;11.40;1.00;;;;;;4960492;28;21244;-85
2022/11/08 01:09:18;;;;;;;9.97;3.60;;;11.30;1.00;;;;;;4956831;28;20444;-91
2022/11/08 01:11:47;;;;;;;9.40;3.70;;;11.30;1.00;;;;;;4957521;28;20437;-88
2022/11/08 01:14:17;;;;;;;9.67;4.10;;;11.30;1.00;;;;;;4976256;28;20528;-86
2022/11/08 01:16:51;;;;;;;9.77;3.20;;;11.30;1.00;;;;;;4965296;28;20465;-85
2022/11/08 01:19:18;;;;;;;10.30;3.80;;;11.30;1.00;;;;;;4950194;28;20557;-85
2022/11/08 01:21:49;;;;;;;9.13;3.30;;;11.30;1.00;;;;;;4964303;28;20475;-89
2022/11/08 01:27:15;;;;;;;10.27;3.50;;;11.20;1.00;;;;;;4957591;28;20445;-90
2022/11/08 01:29:54;;;;;;;9.80;2.93;;;11.10;1.00;;;;;;4964420;28;20436;-88
2022/11/08 01:32:29;;;;;;;10.07;3.73;;;11.10;1.00;;;;;;4965970;28;21083;-83
2022/11/08 01:34:56;;;;;;;11.43;3.57;;;11.10;1.00;;;;;;4943205;28;20459;-84
2022/11/08 01:37:35;;;;;;;10.40;3.70;;;11.10;1.00;;;;;;4959268;28;21003;-81
2022/11/08 01:40:08;;;;;;;12.60;3.67;;;11.00;1.00;;;;;;4956311;28;20468;-81
2022/11/08 01:42:38;;;;;;;11.70;3.60;;;11.00;1.00;;;;;;4953684;28;20549;-82
2022/11/08 01:45:38;;;;;;;9.40;3.70;;;11.00;1.00;;;;;;4956966;28;20454;-81
2022/11/08 01:48:08;;;;;;;10.60;3.83;;;11.00;1.00;;;;;;4942085;28;20570;-80
2022/11/08 01:50:38;;;;;;;9.70;3.30;;;10.90;1.00;;;;;;4945803;28;20482;-82
2022/11/08 01:53:10;;;;;;;9.40;4.00;;;10.90;1.00;;;;;;4939399;28;20447;-84
2022/11/08 01:55:38;;;;;;;9.70;3.30;;;10.80;1.00;;;;;;4952246;28;20597;-85
2022/11/08 02:01:09;;;;;;;24.40;14.60;;;10.90;1.00;;;;;;4961445;28;20479;-81
2022/11/08 02:03:45;;;;;;;8.87;3.83;;;11.00;1.00;;;;;;4955668;28;21339;-84
2022/11/08 02:06:17;;;;;;;9.67;3.80;;;11.10;1.00;;;;;;4977562;28;20420;-81
2022/11/08 02:08:47;;;;;;;7.70;3.03;;;11.20;1.00;;;;;;4972902;28;20462;-83
2022/11/08 02:11:18;;;;;;;10.37;3.63;;;11.20;1.00;;;;;;4946455;28;20948;-82
2022/11/08 02:13:47;;;;;;;9.70;3.63;;;11.30;1.00;;;;;;4976270;28;20491;-85
2022/11/08 02:16:25;;;;;;;10.40;3.43;;;11.40;1.00;;;;;;4951974;28;20471;-87
2022/11/08 02:18:58;;;;;;;10.20;3.80;;;11.50;1.00;;;;;;4949162;28;20559;-80
2022/11/08 02:21:36;;;;;;;9.77;3.37;;;11.50;1.00;;;;;;4969127;28;20470;-83
2022/11/08 02:24:10;;;;;;;7.87;3.53;;;11.50;1.00;;;;;;4933449;28;20430;-80
2022/11/08 02:26:38;;;;;;;12.93;4.03;;;11.50;1.00;;;;;;4950124;28;20539;-80
2022/11/08 02:29:29;;;;;;;9.77;3.50;;;11.40;1.00;;;;;;4952573;28;20421;-81
2022/11/08 02:34:49;;;;;;;9.10;3.47;;;11.20;1.00;;;;;;4945907;28;20476;-85
2022/11/08 02:37:20;;;;;;;9.40;3.50;;;11.20;1.00;;;;;;4940714;28;20468;-82
2022/11/08 02:39:50;;;;;;;10.37;3.30;;;11.20;1.00;;;;;;4961808;28;20511;-82
2022/11/08 02:42:24;;;;;;;12.50;3.97;;;11.10;1.00;;;;;;4953182;28;20474;-80
2022/11/08 02:44:51;;;;;;;10.03;3.77;;;11.10;1.00;;;;;;4966448;28;20461;-84
2022/11/08 02:47:18;;;;;;;9.10;3.83;;;11.10;1.00;;;;;;4961283;28;20448;-81
2022/11/08 02:49:46;;;;;;;8.90;3.40;;;11.10;1.00;;;;;;4963490;28;20423;-82
2022/11/08 02:52:36;;;;;;;13.03;4.43;;;11.20;1.00;;;;;;4957661;28;20471;-84
2022/11/08 02:55:10;;;;;;;8.20;3.50;;;11.20;1.00;;;;;;4943089;28;20459;-87
2022/11/08 02:57:37;;;;;;;10.33;3.33;;;11.20;1.00;;;;;;4968852;28;20467;-83
2022/11/08 03:00:08;;;;;;;9.53;3.17;;;11.10;1.00;;;;;;4949024;28;21500;-83
2022/11/08 03:05:46;;;;;;;10.87;4.13;;;11.10;1.00;;;;;;4919966;28;20555;-83
2022/11/08 03:08:19;;;;;;;8.53;3.60;;;11.10;1.00;;;;;;4955233;28;20428;-83
2022/11/08 03:10:48;;;;;;;8.70;3.53;;;11.00;1.00;;;;;;4951084;28;20434;-86
2022/11/08 03:13:17;;;;;;;10.03;3.90;;;11.00;1.00;;;;;;4965680;28;20491;-90
2022/11/08 03:15:45;;;;;;;9.93;4.07;;;11.00;1.00;;;;;;4962605;28;20459;-84
2022/11/08 03:18:14;;;;;;;12.90;5.70;;;10.90;1.00;;;;;;4953449;28;20970;-86
2022/11/08 03:20:46;;;;;;;10.77;4.10;;;10.80;1.00;;;;;;4946571;28;20483;-86
2022/11/08 03:23:15;;;;;;;12.07;5.30;;;10.80;1.00;;;;;;4950522;28;20487;-83
2022/11/08 03:26:08;;;;;;;12.77;3.90;;;10.90;1.00;;;;;;4971034;28;20438;-88
2022/11/08 03:28:36;;;;;;;13.30;3.97;;;10.90;1.00;;;;;;4952924;28;20509;-84
2022/11/08 03:31:07;;;;;;;9.73;3.43;;;10.80;1.00;;;;;;4955891;28;20435;-87
2022/11/08 03:34:08;;;;;;;11.63;3.90;;;10.80;1.00;;;;;;4979106;28;20481;-85
2022/11/08 03:36:38;;;;;;;11.67;3.83;;;10.90;1.00;;;;;;4947517;28;20464;-84
2022/11/08 03:39:16;;;;;;;10.10;3.90;;;10.90;1.00;;;;;;4965691;28;20462;-90
2022/11/08 03:41:49;;;;;;;9.13;4.87;;;11.00;1.00;;;;;;4957179;28;20443;-84
2022/11/08 03:44:27;;;;;;;10.83;4.00;;;11.10;1.00;;;;;;4972667;28;20451;-92
2022/11/08 03:46:58;;;;;;;12.60;3.87;;;11.10;1.00;;;;;;4959966;28;20550;-85
2022/11/08 03:49:28;;;;;;;10.77;3.77;;;11.10;1.00;;;;;;4966944;28;20453;-92
2022/11/08 03:51:59;;;;;;;11.87;4.77;;;11.10;1.00;;;;;;4947302;28;21653;-91
2022/11/08 03:54:27;;;;;;;10.00;4.10;;;11.10;1.00;;;;;;4956489;28;20447;-88
2022/11/08 03:56:58;;;;;;;11.27;4.13;;;11.20;1.00;;;;;;4949021;28;20463;-84
2022/11/08 03:59:28;;;;;;;12.87;4.37;;;11.10;1.00;;;;;;4961468;28;20709;-85
2022/11/08 04:01:57;;;;;;;10.80;4.00;;;11.00;1.00;;;;;;4949845;28;20464;-86
2022/11/08 04:04:26;;;;;;;9.03;4.40;;;10.90;1.00;;;;;;4977522;28;20641;-86
2022/11/08 04:06:53;;;;;;;9.47;4.10;;;10.80;1.00;;;;;;4944788;28;20553;-87
2022/11/08 04:09:26;;;;;;;9.20;3.90;;;10.80;1.00;;;;;;4950760;28;20547;-85
2022/11/08 04:22:57;;;;;;;9.53;4.00;;;10.40;1.00;;;;;;4954156;28;21168;-82
2022/11/08 04:25:27;;;;;;;11.67;4.23;;;10.50;1.00;;;;;;4957244;28;20558;-83
2022/11/08 04:27:56;;;;;;;12.50;4.53;;;10.40;1.00;;;;;;4953274;28;20548;-86
2022/11/08 04:30:36;;;;;;;11.40;4.47;;;10.40;1.00;;;;;;4967381;28;20437;-80
2022/11/08 04:33:07;;;;;;;10.17;4.73;;;10.40;1.00;;;;;;4963655;28;20458;-82
2022/11/08 04:35:37;;;;;;;12.70;5.43;;;10.40;1.00;;;;;;4966819;28;20459;-85
2022/11/08 04:38:13;;;;;;;12.00;4.77;;;10.40;1.00;;;;;;4945597;28;20431;-84
2022/11/08 04:40:40;;;;;;;14.30;5.30;;;10.30;1.00;;;;;;4960238;28;20448;-83
2022/11/08 04:43:09;;;;;;;10.57;4.80;;;10.30;1.00;;;;;;4953306;28;21183;-82
2022/11/08 04:45:49;;;;;;;13.07;4.50;;;10.20;1.00;;;;;;4944530;28;20489;-89
2022/11/08 04:48:29;;;;;;;;;;;;;;;;;;;;;
2022/11/08 04:51:18;;;;;;;10.47;4.60;;;10.20;1.00;;;;;;4945233;28;39606;-84
2022/11/08 04:53:47;;;;;;;10.53;5.40;;;10.20;1.00;;;;;;4963061;28;20595;-84
2022/11/08 04:56:23;;;;;;;12.83;5.00;;;10.10;1.00;;;;;;4961733;28;20439;-83
2022/11/08 04:58:56;;;;;;;9.20;4.40;;;10.00;1.00;;;;;;4953245;28;20958;-79
2022/11/08 05:01:36;;;;;;;12.90;5.30;;;10.00;1.00;;;;;;4964021;28;20467;-85
2022/11/08 05:04:07;;;;;;;11.20;4.47;;;10.00;1.00;;;;;;4939246;28;20553;-79
2022/11/08 05:06:38;;;;;;;11.43;4.90;;;10.00;1.00;;;;;;4950087;28;20472;-84
2022/11/08 05:09:09;;;;;;;10.60;5.27;;;10.00;1.00;;;;;;4965706;28;20447;-84
2022/11/08 05:11:39;;;;;;;12.00;4.50;;;10.00;1.00;;;;;;4947795;28;20436;-83
2022/11/08 05:14:08;;;;;;;14.73;5.63;;;10.00;1.00;;;;;;4943500;28;20504;-83
2022/11/08 05:16:47;;;;;;;13.57;5.10;;;9.90;1.00;;;;;;4960668;28;20471;-86
2022/11/08 05:23:22;;;;;;;12.03;4.87;;;9.90;1.00;;;;;;4941512;28;20501;-86
2022/11/08 05:24:58;;;;;;;13.10;5.60;;;9.80;1.00;;;;;;4960570;28;20454;-90
2022/11/08 05:27:27;;;;;;;12.90;5.07;;;9.80;1.00;;;;;;4964824;28;20446;-90
2022/11/08 05:29:59;;;;;;;14.37;5.53;;;9.90;1.00;;;;;;4956185;28;20449;-88
2022/11/08 05:32:32;;;;;;;14.10;4.97;;;9.90;1.00;;;;;;4953904;28;20439;-88
2022/11/08 05:35:05;;;;;;;11.87;4.90;;;9.90;1.00;;;;;;4951035;28;20472;-86
2022/11/08 05:37:39;;;;;;;12.40;5.07;;;9.90;1.00;;;;;;4954345;28;20435;-82
2022/11/08 05:40:10;;;;;;;13.00;4.70;;;9.90;1.00;;;;;;4949341;28;20454;-81
2022/11/08 05:42:37;;;;;;;11.47;4.63;;;9.90;1.00;;;;;;4959674;28;20421;-83
2022/11/08 05:45:07;;;;;;;14.97;5.00;;;9.80;1.00;;;;;;4961852;28;20540;-81
2022/11/08 05:47:56;;;;;;;11.40;5.20;;;9.80;1.00;;;;;;4964872;28;20447;-90
2022/11/08 05:56:20;;;;;;;12.40;4.53;;;9.70;1.00;;;;;;4963920;28;20473;-81
2022/11/08 05:58:52;;;;;;;11.77;4.07;;;9.70;1.00;;;;;;4951806;28;20499;-85
2022/11/08 06:01:20;;;;;;;12.80;4.83;;;9.70;1.00;;;;;;4955617;28;20478;-82
2022/11/08 06:03:49;;;;;;;11.33;5.33;;;9.70;1.00;;;;;;4954197;28;20471;-79
2022/11/08 06:06:23;;;;;;;16.47;5.80;;;9.70;1.00;;;;;;4948536;28;20433;-82
2022/11/08 06:08:55;;;;;;;11.50;4.83;;;9.70;1.00;;;;;;4953613;28;20957;-80
2022/11/08 06:11:26;;;;;;;15.60;4.93;;;9.70;1.00;;;;;;4952970;28;20478;-82
2022/11/08 06:14:06;;;;;;;12.60;5.17;;;9.70;1.00;;;;;;4957159;28;20454;-82
2022/11/08 06:16:41;;;;;;;12.27;5.07;;;9.70;1.00;;;;;;4958578;28;20453;-82
2022/11/08 06:19:10;;;;;;;12.80;5.13;;;9.60;1.00;;;;;;4951589;28;20469;-81
2022/11/08 06:21:40;;;;;;;15.10;5.43;;;9.70;1.00;;;;;;4961818;28;20467;-82
2022/11/08 06:24:07;;;;;;;10.00;4.70;;;9.70;1.00;;;;;;4947646;28;20456;-83
2022/11/08 06:26:35;;;;;;;12.20;5.83;;;9.60;1.00;;;;;;4946200;28;20941;-82
2022/11/08 06:29:18;;;;;;;16.00;5.90;;;9.60;1.00;;;;;;4961348;28;20519;-81
2022/11/08 06:31:47;;;;;;;15.00;6.60;;;9.60;1.00;;;;;;4953332;28;20474;-83
2022/11/08 06:34:30;;;;;;;13.57;6.57;;;9.60;1.00;;;;;;4957153;28;20450;-82
2022/11/08 06:36:59;;;;;;;14.17;6.50;;;9.70;1.00;;;;;;4954867;28;20439;-82
2022/11/08 06:39:28;;;;;;;13.90;6.50;;;9.60;1.00;;;;;;4959709;28;21002;-84
2022/11/08 06:42:09;;;;;;;15.97;6.50;;;9.70;1.00;;;;;;4950359;28;20480;-87
2022/11/08 06:44:39;;;;;;;17.30;6.87;;;9.70;1.00;;;;;;4958370;28;20463;-83
2022/11/08 06:47:08;;;;;;;13.70;6.23;;;9.70;1.00;;;;;;4951748;28;20563;-83
2022/11/08 06:49:46;;;;;;;16.57;6.93;;;9.80;1.00;;;;;;4952288;28;20539;-83
2022/11/08 06:52:48;;;;;;;10.43;5.20;;;9.80;1.00;;;;;;4950025;28;20446;-86
2022/11/08 06:55:29;;;;;;;14.13;8.00;;;9.80;1.00;;;;;;4954030;28;20446;-83
2022/11/08 06:58:00;;;;;;;13.03;6.43;;;9.80;1.00;;;;;;4963562;28;20507;-86
2022/11/08 07:00:38;;;;;;;12.60;6.27;;;9.80;1.00;;;;;;4959284;28;20494;-90
2022/11/08 07:03:09;;;;;;;15.40;6.23;;;9.80;1.00;;;;;;4964094;28;20443;-89
2022/11/08 07:05:46;;;;;;;11.30;5.55;;;9.80;1.00;;;;;;4964698;28;20435;-89
2022/11/08 07:08:26;;;;;;;14.87;7.40;;;9.70;1.00;;;;;;4958830;28;20235;-86
2022/11/08 07:11:09;;;;;;;13.40;7.47;;;9.70;1.00;;;;;;4955217;28;20467;-89
2022/11/08 07:13:38;;;;;;;13.00;5.57;;;9.70;1.00;;;;;;4961304;28;20444;-85
2022/11/08 07:16:12;;;;;;;16.33;6.50;;;9.70;1.00;;;;;;4957409;28;20338;-86
2022/11/08 07:18:45;;;;;;;14.87;6.40;;;9.70;1.00;;;;;;4960457;28;20471;-87
2022/11/08 07:21:19;;;;;;;17.30;6.93;;;9.80;1.00;;;;;;4946475;28;20476;-85
2022/11/08 07:23:48;;;;;;;14.10;6.90;;;9.90;1.00;;;;;;4954952;28;20455;-84
2022/11/08 07:26:18;;;;;;;22.83;10.53;;;9.90;1.00;;;;;;4959041;28;21833;-83
2022/11/08 07:28:48;;;;;;;11.30;5.63;;;10.00;1.00;;;;;;4946297;28;20530;-86
2022/11/08 07:34:07;;;;;;;12.17;5.80;;;10.00;1.00;;;;;;4958919;28;20510;-87
2022/11/08 07:36:48;;;;;;;14.30;6.57;;;10.10;1.00;;;;;;4954535;28;20555;-90
2022/11/08 07:39:20;;;;;;;12.30;5.30;;;10.20;1.00;;;;;;4952389;28;20520;-85
2022/11/08 07:41:49;;;;;;;12.17;6.07;;;10.30;1.00;;;;;;4957089;28;20487;-89
2022/11/08 07:44:20;;;;;;;17.60;9.53;;;10.40;1.00;;;;;;4959636;28;20425;-88
2022/11/08 07:46:48;;;;;;;12.60;5.00;;;10.40;1.00;;;;;;4955636;28;20444;-87
2022/11/08 07:49:18;;;;;;;14.17;6.80;;;10.60;1.00;;;;;;4952819;28;20467;-88
2022/11/08 07:51:51;;;;;;;10.70;5.50;;;10.60;1.00;;;;;;4953723;28;20460;-85
2022/11/08 07:54:18;;;;;;;13.50;5.40;;;10.70;1.00;;;;;;4950651;28;21014;-87
2022/11/08 07:56:48;;;;;;;11.77;5.30;;;10.80;1.00;;;;;;4951074;28;20470;-87
2022/11/08 07:59:18;;;;;;;13.53;5.23;;;10.80;1.00;;;;;;4955984;28;20470;-82
2022/11/08 08:01:47;;;;;;;16.13;5.30;;;10.90;1.00;;;;;;4969918;28;20474;-81
2022/11/08 08:04:14;;;;;;;21.93;5.80;;;11.00;1.00;;;;;;4945755;28;20587;-81
2022/11/08 08:06:45;;;;;;;10.20;4.43;;;11.20;1.00;;;;;;4946558;28;20475;-79
2022/11/08 08:09:19;;;;;;;12.03;4.73;;;11.30;1.00;;;;;;4940174;28;20445;-84
2022/11/08 08:11:48;;;;;;;11.37;4.50;;;11.60;1.00;;;;;;4944254;28;20515;-81
2022/11/08 08:14:25;;;;;;;10.60;3.97;;;11.80;1.00;;;;;;4950367;28;20466;-79
2022/11/08 08:16:58;;;;;;;8.80;4.30;;;12.10;1.00;;;;;;4947180;28;20498;-82
2022/11/08 08:19:33;;;;;;;11.47;5.07;;;12.10;1.00;;;;;;4951487;28;20879;-79
2022/11/08 08:22:00;;;;;;;12.90;5.30;;;12.20;1.00;;;;;;4945168;28;21176;-83
2022/11/08 08:24:30;;;;;;;10.70;4.13;;;12.20;1.00;;;;;;4953813;28;20559;-82
2022/11/08 08:26:58;;;;;;;11.93;4.10;;;12.20;1.00;;;;;;4947338;28;20552;-82
2022/11/08 08:29:26;;;;;;;12.20;5.20;;;12.30;1.00;;;;;;4950763;28;20475;-83
2022/11/08 08:31:53;;;;;;;11.03;4.20;;;12.30;1.00;;;;;;4947767;28;21243;-80
2022/11/08 08:34:20;;;;;;;12.33;4.87;;;12.40;1.00;;;;;;4946354;28;20511;-80
2022/11/08 08:36:49;;;;;;;12.83;5.80;;;12.50;1.00;;;;;;4946307;28;20465;-81
2022/11/08 08:39:18;;;;;;;11.10;4.47;;;12.50;1.00;;;;;;4947758;28;20518;-81
2022/11/08 08:41:47;;;;;;;13.57;4.70;;;12.60;1.00;;;;;;4951297;28;20454;-81
2022/11/08 08:44:16;;;;;;;10.23;4.90;;;12.70;1.00;;;;;;4949508;28;20454;-79
2022/11/08 08:46:46;;;;;;;12.43;3.90;;;12.80;1.00;;;;;;4952903;28;20545;-81
2022/11/08 08:49:20;;;;;;;12.57;3.60;;;12.90;1.00;;;;;;4950486;28;20463;-82
2022/11/08 08:51:48;;;;;;;10.27;3.93;;;13.10;1.00;;;;;;4947471;28;20484;-82
2022/11/08 08:54:16;;;;;;;8.23;3.50;;;13.20;1.00;;;;;;4951649;28;20468;-83
2022/11/08 08:56:43;;;;;;;13.53;4.10;;;13.30;1.00;;;;;;4943212;28;20473;-82
2022/11/08 08:59:13;;;;;;;10.63;4.00;;;13.50;1.00;;;;;;4937557;28;20991;-82
2022/11/08 09:01:40;;;;;;;9.80;3.20;;;13.50;1.00;;;;;;4943942;28;20554;-82
2022/11/08 09:04:08;;;;;;;9.77;3.40;;;13.60;1.00;;;;;;4946015;28;21164;-82
2022/11/08 09:06:35;;;;;;;9.50;3.03;;;13.70;1.00;;;;;;4945758;28;20467;-82
2022/11/08 09:09:09;;;;;;;11.00;3.80;;;13.80;1.00;;;;;;4943897;28;21164;-83
2022/11/08 09:11:38;;;;;;;10.00;4.23;;;14.10;1.00;;;;;;4950542;28;21021;-80
2022/11/08 09:14:05;;;;;;;14.17;3.33;;;15.00;1.00;;;;;;4946411;28;21252;-83
2022/11/08 09:16:36;;;;;;;10.23;3.10;;;15.80;1.00;;;;;;4944830;28;20915;-82
2022/11/08 09:19:10;;;;;;;8.60;3.17;;;16.40;1.00;;;;;;4948119;28;20462;-82
2022/11/08 09:21:38;;;;;;;9.03;3.00;;;16.70;1.00;;;;;;4952913;28;20976;-81
2022/11/08 09:24:08;;;;;;;9.47;3.67;;;16.80;1.00;;;;;;4945435;28;21092;-84
2022/11/08 09:26:36;;;;;;;8.43;2.80;;;17.10;1.00;;;;;;4949582;28;20484;-81
2022/11/08 09:29:08;;;;;;;9.90;3.13;;;17.10;1.00;;;;;;4947193;28;20975;-84
2022/11/08 09:31:37;;;;;;;10.97;3.60;;;16.90;1.00;;;;;;4946969;28;20484;-83
2022/11/08 09:34:07;;;;;;;8.83;2.80;;;16.60;1.00;;;;;;4970361;28;21020;-82
2022/11/08 09:36:34;;;;;;;9.60;3.00;;;16.30;1.00;;;;;;4944499;28;20476;-83
2022/11/08 09:39:00;;;;;;;8.73;3.03;;;16.20;1.00;;;;;;4945271;28;20486;-82
2022/11/08 09:42:17;;;;;;;8.40;2.90;;;16.40;1.00;;;;;;4952062;28;20957;-81
2022/11/08 09:45:19;;;;;;;8.40;2.93;;;16.90;1.00;;;;;;4905788;29;20450;-82
2022/11/08 09:47:56;;;;;;;9.57;2.53;;;17.40;1.00;;;;;;4948402;28;20463;-82
2022/11/08 09:50:31;;;;;;;8.40;2.77;;;17.00;1.00;;;;;;4948634;28;20466;-83
2022/11/08 09:53:03;;;;;;;8.40;2.47;;;16.70;1.00;;;;;;4945152;28;20466;-81
2022/11/08 09:55:39;;;;;;;9.17;2.70;;;16.60;1.00;;;;;;4949060;28;20511;-82
2022/11/08 09:58:28;;;;;;;8.60;3.13;;;16.60;1.00;;;;;;4947822;28;20498;-83
2022/11/08 10:01:07;;;;;;;7.83;2.30;;;16.60;1.00;;;;;;4946393;28;20620;-80
2022/11/08 10:03:53;;;;;;;8.73;3.03;;;16.60;1.00;;;;;;4951273;28;20751;-84
2022/11/08 10:06:46;;;;;;;12.50;3.00;;;17.00;1.00;;;;;;4948501;28;20460;-83
2022/11/08 10:09:26;;;;;;;7.83;3.07;;;17.40;1.00;;;;;;4937024;28;20595;-83
2022/11/08 10:12:08;;;;;;;7.20;2.57;;;17.50;1.00;;;;;;4937560;28;20470;-82
2022/11/08 10:14:52;;;;;;;7.53;2.50;;;17.90;1.00;;;;;;4948246;28;20463;-83
2022/11/08 10:17:57;;;;;;;7.00;2.27;;;18.20;1.00;;;;;;4945483;28;20582;-83
2022/11/08 10:20:40;;;;;;;7.77;2.70;;;18.10;1.00;;;;;;4940419;28;20456;-85
2022/11/08 10:23:20;;;;;;;6.80;2.50;;;18.00;1.00;;;;;;4941400;28;20424;-83
2022/11/08 10:25:50;;;;;;;7.50;2.80;;;18.10;1.00;;;;;;4949585;28;20471;-85
2022/11/08 10:28:19;;;;;;;8.03;2.80;;;17.90;1.00;;;;;;4950918;28;20456;-83
2022/11/08 10:30:53;;;;;;;7.73;2.70;;;17.70;1.00;;;;;;4955473;28;20439;-81
2022/11/08 10:33:32;;;;;;;9.13;2.83;;;17.70;1.00;;;;;;4940511;28;20466;-86
2022/11/08 10:36:07;;;;;;;8.50;2.60;;;18.00;1.00;;;;;;4956845;28;20550;-84
2022/11/08 10:38:39;;;;;;;9.90;2.37;;;18.10;1.00;;;;;;4955580;28;20616;-82
2022/11/08 10:41:17;;;;;;;7.40;2.20;;;18.50;1.00;;;;;;4943972;28;20465;-84
2022/11/08 10:43:53;;;;;;;9.10;2.17;;;18.70;1.00;;;;;;4938270;28;20445;-82
2022/11/08 10:46:36;;;;;;;8.93;2.20;;;18.80;1.00;;;;;;4948898;28;20475;-82
2022/11/08 10:49:16;;;;;;;7.07;2.10;;;18.90;1.00;;;;;;4954657;28;20437;-83
2022/11/08 10:52:01;;;;;;;9.03;2.77;;;19.20;1.00;;;;;;4957620;28;20483;-84
2022/11/08 10:54:59;;;;;;;7.90;2.60;;;19.50;1.00;;;;;;4961384;28;20518;-85
2022/11/08 10:57:47;;;;;;;9.37;2.93;;;19.80;1.00;;;;;;4951528;28;20488;-81
2022/11/08 11:00:28;;;;;;;10.50;2.40;;;20.00;1.00;;;;;;4949614;28;21186;-82
2022/11/08 11:03:00;;;;;;;6.80;1.90;;;20.00;1.00;;;;;;4947926;28;20447;-82
2022/11/08 11:05:38;;;;;;;6.83;2.03;;;20.10;1.00;;;;;;4963473;28;20570;-81
2022/11/08 11:08:19;;;;;;;8.50;2.80;;;19.90;1.00;;;;;;4943742;28;20492;-82
2022/11/08 11:10:58;;;;;;;7.93;2.90;;;19.40;1.00;;;;;;4952838;28;20412;-81
2022/11/08 11:13:29;;;;;;;9.00;2.23;;;19.30;1.00;;;;;;4953771;28;20414;-82
2022/11/08 11:16:02;;;;;;;7.33;2.00;;;19.50;1.00;;;;;;4919582;28;20613;-83
2022/11/08 11:18:39;;;;;;;7.73;2.57;;;19.60;1.00;;;;;;4952242;28;20456;-79
2022/11/08 11:21:18;;;;;;;11.70;3.47;;;19.80;1.00;;;;;;4950323;28;20481;-81
2022/11/08 11:23:57;;;;;;;7.93;2.17;;;20.40;1.00;;;;;;4951967;28;20477;-82
2022/11/08 11:26:33;;;;;;;8.97;2.20;;;21.20;1.00;;;;;;4953647;28;20462;-82
2022/11/08 11:29:35;;;;;;;8.67;2.70;;;22.00;1.00;;;;;;4934375;28;20450;-82
2022/11/08 11:32:25;;;;;;;9.00;2.10;;;22.60;1.00;;;;;;4948410;28;20517;-84
2022/11/08 11:34:57;;;;;;;6.30;2.13;;;23.40;1.00;;;;;;4955476;28;20498;-83
2022/11/08 11:37:30;;;;;;;6.53;1.83;;;23.40;1.00;;;;;;4952535;28;20509;-83
2022/11/08 11:40:11;;;;;;;6.10;2.10;;;23.30;1.00;;;;;;4954186;28;20475;-81
2022/11/08 11:42:53;;;;;;;6.50;1.63;;;23.40;1.00;;;;;;4950111;28;20451;-81
2022/11/08 11:45:31;;;;;;;7.37;2.10;;;23.30;1.00;;;;;;4957184;28;20463;-81
2022/11/08 11:48:21;;;;;;;9.30;2.50;;;23.10;1.00;;;;;;4953067;28;20482;-79
2022/11/08 11:50:53;;;;;;;5.60;1.90;;;23.50;1.00;;;;;;4961388;28;20451;-85
2022/11/08 11:53:35;;;;;;;5.40;2.20;;;23.90;1.00;;;;;;4962925;28;20493;-83
2022/11/08 11:56:24;;;;;;;5.80;1.77;;;24.30;1.00;;;;;;4945182;28;20479;-82
2022/11/08 11:59:12;;;;;;;7.47;1.87;;;24.60;1.00;;;;;;4950303;28;20471;-83
2022/11/08 12:02:02;;;;;;;5.77;1.90;;;25.20;1.00;;;;;;4940551;28;20542;-82
2022/11/08 12:04:53;;;;;;;6.27;2.53;;;26.20;1.00;;;;;;4952515;28;20429;-83
2022/11/08 12:07:26;;;;;;;5.90;1.47;;;26.40;1.00;;;;;;4952523;28;20531;-83
2022/11/08 12:10:11;;;;;;;6.73;1.50;;;26.50;1.00;;;;;;4957576;28;20470;-83
2022/11/08 12:13:02;;;;;;;5.93;1.73;;;26.60;1.00;;;;;;4953822;28;20480;-82
2022/11/08 12:15:42;;;;;;;6.10;1.93;;;26.80;1.00;;;;;;4950331;28;20461;-86
2022/11/08 12:18:35;;;;;;;5.80;2.13;;;27.30;1.00;;;;;;4959374;28;20500;-82
2022/11/08 12:21:14;;;;;;;6.37;1.90;;;28.00;1.00;;;;;;4946411;28;20434;-82
2022/11/08 12:24:22;;;;;;;5.97;1.83;;;28.70;1.00;;;;;;4958024;28;20453;-89
2022/11/08 12:27:06;;;;;;;5.60;1.90;;;28.10;1.00;;;;;;4945749;28;20442;-79
2022/11/08 12:29:52;;;;;;;5.40;1.63;;;27.40;1.00;;;;;;4939632;28;20859;-81
2022/11/08 12:32:53;;;;;;;6.47;1.93;;;25.90;1.00;;;;;;4978474;28;20462;-85
2022/11/08 12:35:45;;;;;;;4.50;1.80;;;25.00;1.00;;;;;;4955553;28;21103;-83
2022/11/08 12:38:30;;;;;;;5.93;1.70;;;25.20;1.00;;;;;;4944241;28;20932;-79
2022/11/08 12:41:13;;;;;;;6.27;2.30;;;25.20;1.00;;;;;;4952819;28;21015;-81
2022/11/08 12:44:03;;;;;;;4.77;1.60;;;24.60;1.00;;;;;;4953099;28;20626;-90
2022/11/08 12:46:50;;;;;;;7.47;2.20;;;24.50;1.00;;;;;;4953095;28;20490;-81
2022/11/08 12:49:42;;;;;;;5.53;1.50;;;24.70;1.00;;;;;;4946127;28;20481;-86
2022/11/08 12:52:32;;;;;;;6.07;1.60;;;25.40;1.00;;;;;;4954393;28;20440;-83
2022/11/08 12:58:09;;;;;;;6.03;2.10;;;24.50;1.00;;;;;;4937170;28;21160;-85
2022/11/08 13:00:43;;;;;;;5.80;1.60;;;24.30;1.00;;;;;;4956059;28;21053;-81
2022/11/08 13:03:35;;;;;;;6.73;1.70;;;24.50;1.00;;;;;;4957966;28;20440;-90
2022/11/08 13:06:16;;;;;;;8.13;1.47;;;24.80;1.00;;;;;;4950170;28;20464;-82
2022/11/08 13:09:03;;;;;;;6.07;1.77;;;24.20;1.00;;;;;;4947884;28;20527;-89
2022/11/08 13:11:55;;;;;;;5.70;2.07;;;23.10;1.00;;;;;;4958746;28;20673;-82
2022/11/08 13:14:26;;;;;;;9.73;2.27;;;22.00;1.00;;;;;;4944113;28;20506;-80
2022/11/08 13:17:23;;;;;;;5.13;1.63;;;21.10;1.00;;;;;;4950121;28;20991;-80
2022/11/08 13:20:24;;;;;;;6.67;1.80;;;20.40;1.00;;;;;;4940582;28;20508;-92
2022/11/08 13:23:15;;;;;;;6.13;1.60;;;19.90;1.00;;;;;;4967847;28;20437;-87
2022/11/08 13:25:44;;;;;;;5.53;1.60;;;19.60;1.00;;;;;;4946337;28;20431;-80
2022/11/08 13:28:42;;;;;;;6.70;1.87;;;19.20;1.00;;;;;;4982606;28;20427;-86
2022/11/08 13:31:47;;;;;;;6.40;1.63;;;18.70;1.00;;;;;;4948120;28;20427;-89
2022/11/08 13:34:46;;;;;;;5.50;1.77;;;18.50;1.00;;;;;;4971628;28;20750;-88
2022/11/08 13:37:42;;;;;;;5.20;1.80;;;18.40;1.00;;;;;;4956093;28;20476;-87
2022/11/08 13:40:34;;;;;;;5.43;1.40;;;18.40;1.00;;;;;;4911430;28;20438;-88
2022/11/08 13:43:21;;;;;;;6.50;1.77;;;18.40;1.00;;;;;;4938469;28;20912;-86
2022/11/08 13:45:55;;;;;;;6.13;1.60;;;18.20;1.00;;;;;;4945883;28;20440;-88
2022/11/08 13:49:03;;;;;;;5.43;1.53;;;18.20;1.00;;;;;;4960766;28;20472;-89
2022/11/08 13:51:36;;;;;;;7.20;1.70;;;18.20;1.00;;;;;;4954085;28;20447;-82
2022/11/08 13:54:14;;;;;;;6.77;1.70;;;18.10;1.00;;;;;;4964694;28;20482;-80
2022/11/08 13:56:54;;;;;;;9.30;1.87;;;18.10;1.00;;;;;;4948894;28;21081;-80
2022/11/08 13:59:54;;;;;;;6.73;2.13;;;17.90;1.00;;;;;;4975125;28;21223;-86
2022/11/08 14:02:44;;;;;;;5.40;2.17;;;17.80;1.00;;;;;;4951862;28;20551;-90
2022/11/08 14:05:25;;;;;;;7.90;2.40;;;17.60;1.00;;;;;;4948712;28;21074;-89
2022/11/08 14:08:26;;;;;;;5.93;2.13;;;17.40;1.00;;;;;;4961484;28;20480;-89
2022/11/08 14:11:36;;;;;;;5.87;2.50;;;17.30;1.00;;;;;;4970296;28;21369;-89
2022/11/08 14:14:52;;;;;;;8.40;2.10;;;17.10;1.00;;;;;;4960155;28;20444;-86
2022/11/08 14:17:36;;;;;;;6.30;1.97;;;17.00;1.00;;;;;;4862476;29;24206;-91
2022/11/08 14:20:26;;;;;;;6.27;1.90;;;17.00;1.00;;;;;;4875222;29;21312;-89
2022/11/08 14:22:56;;;;;;;9.17;1.90;;;16.90;1.00;;;;;;4939070;28;20513;-84
2022/11/08 14:25:35;;;;;;;8.63;2.10;;;16.90;1.00;;;;;;4955489;28;20526;-85
2022/11/08 14:28:05;;;;;;;7.60;2.03;;;16.80;1.00;;;;;;4951506;28;20838;-86
2022/11/08 14:30:36;;;;;;;6.90;2.00;;;16.70;1.00;;;;;;4937433;28;20467;-83
2022/11/08 14:33:16;;;;;;;6.73;1.67;;;16.70;1.00;;;;;;4957152;28;21030;-83
2022/11/08 14:36:02;;;;;;;6.07;1.90;;;16.70;1.00;;;;;;4950655;28;20767;-82